Westville, Illinois
Current Conditions -  °F | °C
As of 4:35 AM on Thursday 27 Nov 2014 (Local Time) from KDNV Reporting Station
Haze Haze  
Wind Chill: 16°   Ceiling: 4200
Heat Index: 25°   Visibility: 5mi
Dew Point: 23°   Wind: 9mph
Humidity: 91%   Direction: 300°WNW
Pressure: 30.23"   Gusts: NA
Location:  40.04°N, 87.64°W
Report Text: KDNV 271035Z AUTO 30008KT 5SM BR OVC042 M04/M05 A3023 RMK AO2 T10381051
Loading
Personal Weather Stations






























Interactive Weather Map New forecast layout! Learn more

10-Day Weather Forecast

Advertisements
Track Severe Weather on mobile